Time;durP1;ratioP1;P1;durP2;ratioP2;P2;SDS_P1;SDS_P2;PMS_P1;PMS_P2;Temp;Humidity;BMP_temperature;BMP_pressure;BME280_temperature;BME280_humidity;BME280_pressure;Samples;Min_cycle;Max_cycle;Signal;HPM_P1;HPM_P2
2023/04/09 00:02:16;;;;;;;65.45;40.85;;;8.30;93.00;;;;;;5099783;28;20037;-84
2023/04/09 00:04:41;;;;;;;58.15;39.53;;;8.40;93.10;;;;;;5096420;28;20052;-83
2023/04/09 00:07:07;;;;;;;62.90;41.22;;;8.40;93.10;;;;;;5061738;28;20047;-83
2023/04/09 00:09:33;;;;;;;64.43;43.67;;;8.40;93.10;;;;;;5094822;28;20039;-82
2023/04/09 00:11:59;;;;;;;63.63;41.97;;;8.40;93.10;;;;;;5094812;28;20039;-83
2023/04/09 00:14:24;;;;;;;59.25;39.72;;;8.40;93.20;;;;;;5111814;28;20040;-82
2023/04/09 00:16:50;;;;;;;69.45;42.60;;;8.40;93.20;;;;;;5094720;28;20179;-83
2023/04/09 00:19:16;;;;;;;59.47;39.88;;;8.40;93.20;;;;;;5094540;28;20092;-84
2023/04/09 00:21:42;;;;;;;64.88;40.90;;;8.40;93.20;;;;;;5077778;28;20040;-82
2023/04/09 00:24:07;;;;;;;60.03;41.05;;;8.40;93.30;;;;;;5078070;28;20080;-82
2023/04/09 00:26:33;;;;;;;61.45;40.53;;;8.40;93.40;;;;;;5094639;28;20395;-83
2023/04/09 00:28:59;;;;;;;63.08;42.17;;;8.40;93.40;;;;;;5111860;28;20047;-82
2023/04/09 00:31:25;;;;;;;70.90;44.22;;;8.40;93.40;;;;;;5111493;28;20040;-83
2023/04/09 00:33:51;;;;;;;64.40;43.35;;;8.40;93.30;;;;;;5111384;28;20050;-83
2023/04/09 00:36:16;;;;;;;66.68;44.50;;;8.30;93.30;;;;;;5094728;28;20047;-82
2023/04/09 00:38:42;;;;;;;62.90;41.58;;;8.40;93.30;;;;;;5077536;28;20031;-82
2023/04/09 00:41:08;;;;;;;64.72;42.95;;;8.40;93.30;;;;;;5094826;28;20043;-83
2023/04/09 00:43:34;;;;;;;66.22;42.63;;;8.30;93.30;;;;;;5094598;28;20044;-83
2023/04/09 00:46:00;;;;;;;67.43;45.20;;;8.40;93.30;;;;;;5094337;28;20126;-82
2023/04/09 00:48:26;;;;;;;76.75;47.42;;;8.40;93.50;;;;;;5096145;28;20035;-83
2023/04/09 00:50:52;;;;;;;69.15;47.47;;;8.40;93.70;;;;;;5098010;28;20491;-82
2023/04/09 00:53:18;;;;;;;70.38;49.08;;;8.40;93.60;;;;;;5098277;28;20067;-82
2023/04/09 00:55:45;;;;;;;76.00;48.65;;;8.40;94.10;;;;;;5097906;28;20055;-83
2023/04/09 00:58:10;;;;;;;67.82;45.33;;;8.30;94.30;;;;;;5098093;28;20101;-82
2023/04/09 01:00:36;;;;;;;68.93;47.10;;;8.40;94.00;;;;;;5081261;28;20442;-82
2023/04/09 01:03:04;;;;;;;71.53;47.33;;;8.30;93.90;;;;;;5117074;27;20031;-83
2023/04/09 01:06:00;;;;;;;70.28;47.08;;;8.40;93.70;;;;;;5101359;27;20329;-81
2023/04/09 01:08:55;;;;;;;71.53;46.13;;;8.40;93.80;;;;;;5101390;27;20068;-82
2023/04/09 01:11:45;;;;;;;70.88;46.28;;;8.40;94.00;;;;;;5118322;27;20431;-82
2023/04/09 01:14:23;;;;;;;74.93;46.15;;;8.40;94.00;;;;;;5118150;27;20126;-83
2023/04/09 01:16:56;;;;;;;69.72;43.45;;;8.40;93.70;;;;;;5118185;27;20061;-84
2023/04/09 01:19:49;;;;;;;71.72;46.72;;;8.40;94.00;;;;;;5118027;27;20049;-82
2023/04/09 01:22:57;;;;;;;71.95;48.42;;;8.40;94.00;;;;;;5091135;27;20131;-83
2023/04/09 01:25:34;;;;;;;65.15;44.38;;;8.40;93.90;;;;;;5100698;27;20047;-84
2023/04/09 01:28:19;;;;;;;71.57;45.78;;;8.40;93.90;;;;;;5117591;27;20039;-81
2023/04/09 01:30:49;;;;;;;67.15;45.58;;;8.40;93.90;;;;;;5117671;27;20043;-84
2023/04/09 01:33:18;;;;;;;70.97;45.40;;;8.40;93.80;;;;;;5117560;27;20043;-82
2023/04/09 01:35:47;;;;;;;65.07;43.97;;;8.40;93.80;;;;;;5118029;27;20461;-82
2023/04/09 01:38:15;;;;;;;70.90;45.20;;;8.40;93.40;;;;;;5100331;27;20046;-83
2023/04/09 01:40:41;;;;;;;64.82;45.42;;;8.50;93.30;;;;;;5100612;27;20509;-82
2023/04/09 01:43:07;;;;;;;65.70;44.47;;;8.40;93.30;;;;;;5100525;27;20467;-84
2023/04/09 01:45:34;;;;;;;68.35;44.17;;;8.50;93.50;;;;;;5117340;27;20093;-82
2023/04/09 01:48:01;;;;;;;60.42;43.33;;;8.40;93.60;;;;;;5100256;27;20081;-82
2023/04/09 01:50:26;;;;;;;64.75;39.88;;;8.50;93.70;;;;;;5100346;27;20047;-83
2023/04/09 01:52:53;;;;;;;63.83;41.58;;;8.40;93.60;;;;;;5100656;27;20126;-82
2023/04/09 01:55:18;;;;;;;64.55;42.13;;;8.50;93.50;;;;;;5100202;27;20043;-84
2023/04/09 01:57:44;;;;;;;68.35;42.30;;;8.50;93.60;;;;;;5099882;27;20046;-83
2023/04/09 02:00:11;;;;;;;65.45;42.55;;;8.50;93.40;;;;;;5082377;27;20035;-83
2023/04/09 02:02:47;;;;;;;68.95;44.15;;;8.50;93.30;;;;;;5117379;27;20042;-82
2023/04/09 02:05:18;;;;;;;68.03;41.97;;;8.40;93.30;;;;;;5113463;28;20176;-83
2023/04/09 02:07:47;;;;;;;67.32;40.92;;;8.40;93.20;;;;;;5096504;28;20035;-82
2023/04/09 02:10:16;;;;;;;63.40;40.65;;;8.50;93.20;;;;;;5113335;28;20047;-82
2023/04/09 02:12:45;;;;;;;71.57;40.97;;;8.50;93.20;;;;;;5113356;28;20117;-82
2023/04/09 02:15:12;;;;;;;69.55;43.58;;;8.40;93.20;;;;;;5113337;28;20047;-82
2023/04/09 02:17:38;;;;;;;68.05;41.47;;;8.50;93.20;;;;;;5079728;28;20081;-82
2023/04/09 02:20:04;;;;;;;69.70;40.38;;;8.40;93.10;;;;;;5113531;28;20476;-83
2023/04/09 02:22:30;;;;;;;69.63;40.75;;;8.40;93.00;;;;;;5079561;28;20043;-82
2023/04/09 02:24:55;;;;;;;69.68;41.90;;;8.40;92.90;;;;;;5113072;28;20092;-84
2023/04/09 02:27:21;;;;;;;74.75;42.58;;;8.30;92.70;;;;;;5079432;28;20189;-83
2023/04/09 02:29:47;;;;;;;70.53;43.85;;;8.40;92.80;;;;;;5062769;28;20044;-84
2023/04/09 02:32:12;;;;;;;70.80;41.28;;;8.40;92.70;;;;;;5079393;28;20130;-83
2023/04/09 02:34:38;;;;;;;77.15;44.13;;;8.30;92.70;;;;;;5113169;28;20047;-82
2023/04/09 02:37:04;;;;;;;72.00;42.42;;;8.30;92.60;;;;;;5113166;28;20047;-82
2023/04/09 02:39:30;;;;;;;67.78;42.15;;;8.30;92.60;;;;;;5096207;28;20399;-82
2023/04/09 02:41:56;;;;;;;77.78;45.05;;;8.30;92.60;;;;;;5112909;28;20445;-82
2023/04/09 02:44:22;;;;;;;70.65;44.30;;;8.30;92.70;;;;;;5079369;28;20032;-83
2023/04/09 02:46:51;;;;;;;80.53;42.85;;;8.30;92.70;;;;;;5096082;28;20040;-82
2023/04/09 02:49:16;;;;;;;77.55;43.78;;;8.30;92.70;;;;;;5113203;28;20079;-83
2023/04/09 02:51:42;;;;;;;78.68;45.97;;;8.30;92.70;;;;;;5079048;28;20035;-83
2023/04/09 02:54:08;;;;;;;74.30;43.47;;;8.30;92.70;;;;;;5062463;28;20035;-82
2023/04/09 02:56:33;;;;;;;76.78;44.47;;;8.30;92.60;;;;;;5062426;28;20472;-83
2023/04/09 02:58:59;;;;;;;79.38;44.15;;;8.20;92.60;;;;;;5095674;28;20043;-83
2023/04/09 03:01:25;;;;;;;73.65;44.08;;;8.30;92.60;;;;;;5078728;28;20051;-83
2023/04/09 03:03:51;;;;;;;82.05;45.92;;;8.20;92.60;;;;;;5078634;28;20090;-82
2023/04/09 03:06:17;;;;;;;83.75;45.65;;;8.20;92.50;;;;;;5112413;28;20280;-82
2023/04/09 03:08:43;;;;;;;80.53;45.78;;;8.20;92.50;;;;;;5095299;28;20054;-83
2023/04/09 03:11:08;;;;;;;87.97;47.08;;;8.20;92.50;;;;;;5095177;28;20043;-83
2023/04/09 03:13:34;;;;;;;79.35;46.75;;;8.20;92.50;;;;;;5078799;28;20135;-82
2023/04/09 03:16:00;;;;;;;79.90;46.00;;;8.10;92.50;;;;;;5078577;28;20522;-82
2023/04/09 03:18:25;;;;;;;78.85;46.65;;;8.10;92.50;;;;;;5078629;28;20036;-83
2023/04/09 03:20:51;;;;;;;80.35;44.92;;;8.10;92.50;;;;;;5095833;28;20125;-83
2023/04/09 03:23:17;;;;;;;78.15;45.10;;;8.10;92.50;;;;;;5079107;28;20387;-83
2023/04/09 03:25:42;;;;;;;83.85;45.83;;;8.10;92.60;;;;;;5078822;28;20040;-82
2023/04/09 03:28:08;;;;;;;84.70;46.78;;;8.10;92.50;;;;;;5095808;28;20043;-84
2023/04/09 03:30:34;;;;;;;88.00;47.65;;;8.10;92.50;;;;;;5095461;28;20506;-82
2023/04/09 03:32:59;;;;;;;86.65;45.53;;;8.10;92.50;;;;;;5112322;28;20039;-82
2023/04/09 03:35:25;;;;;;;84.82;46.03;;;8.00;92.60;;;;;;5095273;28;20047;-83
2023/04/09 03:37:51;;;;;;;83.78;46.35;;;8.00;92.50;;;;;;5112180;28;20047;-83
2023/04/09 03:40:17;;;;;;;84.40;45.40;;;8.00;92.50;;;;;;5078540;28;20039;-82
2023/04/09 03:42:43;;;;;;;78.20;45.20;;;8.00;92.50;;;;;;5078331;28;20184;-82
2023/04/09 03:45:09;;;;;;;82.97;44.75;;;8.00;92.50;;;;;;5078570;28;20042;-83
2023/04/09 03:47:35;;;;;;;84.20;44.25;;;8.00;92.60;;;;;;5095046;28;20380;-84
2023/04/09 03:50:00;;;;;;;79.82;44.42;;;8.00;92.60;;;;;;5061400;28;20039;-83
2023/04/09 03:52:26;;;;;;;78.90;45.20;;;8.00;92.50;;;;;;5094991;28;20043;-83
2023/04/09 03:54:52;;;;;;;67.53;39.03;;;8.00;92.60;;;;;;5078281;28;20564;-83
2023/04/09 03:57:18;;;;;;;71.78;39.78;;;8.00;92.50;;;;;;5078540;28;20108;-82
2023/04/09 03:59:44;;;;;;;82.20;44.42;;;8.00;92.50;;;;;;5077958;28;20032;-82
2023/04/09 04:02:09;;;;;;;81.20;43.80;;;8.00;92.40;;;;;;5095085;28;20372;-81
2023/04/09 04:04:35;;;;;;;78.00;41.95;;;8.00;92.50;;;;;;5094776;28;20089;-82
2023/04/09 04:07:02;;;;;;;78.68;41.78;;;8.00;92.50;;;;;;5078219;28;20044;-82
2023/04/09 04:09:28;;;;;;;79.05;42.90;;;7.90;92.60;;;;;;5078064;28;20126;-83
2023/04/09 04:11:55;;;;;;;76.65;41.65;;;8.00;92.60;;;;;;5077882;28;20127;-83
2023/04/09 04:14:20;;;;;;;76.18;41.83;;;8.00;92.60;;;;;;5095013;28;20039;-84
2023/04/09 04:16:46;;;;;;;78.63;42.17;;;7.90;92.60;;;;;;5094699;28;20043;-83
2023/04/09 04:19:12;;;;;;;73.30;41.72;;;7.90;92.80;;;;;;5094749;28;20046;-84
2023/04/09 04:21:38;;;;;;;70.47;39.35;;;8.00;92.90;;;;;;5094649;28;20040;-83
2023/04/09 04:24:04;;;;;;;69.50;37.03;;;7.90;92.80;;;;;;5064146;28;20040;-83
2023/04/09 04:26:30;;;;;;;68.55;39.22;;;7.90;92.80;;;;;;5098697;28;20075;-83
2023/04/09 04:28:56;;;;;;;66.50;37.00;;;7.90;92.90;;;;;;5081844;28;20080;-83
2023/04/09 04:31:21;;;;;;;60.15;33.97;;;7.90;92.90;;;;;;5081740;28;20038;-84
2023/04/09 04:33:47;;;;;;;57.15;31.73;;;7.90;92.80;;;;;;5081635;28;20040;-83
2023/04/09 04:36:13;;;;;;;60.78;35.42;;;7.90;92.80;;;;;;5098250;28;20044;-84
2023/04/09 04:38:40;;;;;;;61.90;34.75;;;7.80;92.90;;;;;;5098282;28;20480;-86
2023/04/09 04:41:06;;;;;;;58.95;33.33;;;7.80;93.00;;;;;;5115546;28;20048;-84
2023/04/09 04:43:32;;;;;;;57.00;32.38;;;7.80;93.00;;;;;;5115253;28;20073;-84
2023/04/09 04:45:58;;;;;;;60.28;34.15;;;7.70;92.90;;;;;;5098192;28;20084;-84
2023/04/09 04:48:24;;;;;;;59.70;34.35;;;7.70;93.00;;;;;;5098099;28;20130;-84
2023/04/09 04:51:00;;;;;;;55.75;31.75;;;7.70;93.00;;;;;;5098009;28;20046;-83
2023/04/09 04:53:26;;;;;;;58.53;33.20;;;7.70;93.00;;;;;;5098314;28;20077;-83
2023/04/09 04:55:52;;;;;;;61.75;33.67;;;7.60;93.00;;;;;;5098391;28;20143;-84
2023/04/09 04:58:18;;;;;;;59.25;34.35;;;7.60;93.10;;;;;;5097759;28;20071;-84
2023/04/09 05:00:44;;;;;;;64.50;34.65;;;7.70;93.10;;;;;;5097678;28;20079;-84
2023/04/09 05:03:11;;;;;;;62.70;35.25;;;7.70;93.20;;;;;;5081593;27;20366;-83
2023/04/09 05:05:37;;;;;;;64.65;34.92;;;7.70;93.10;;;;;;5101824;27;20051;-84
2023/04/09 05:08:04;;;;;;;56.30;32.75;;;7.70;93.10;;;;;;5101196;27;20100;-83
2023/04/09 05:10:30;;;;;;;61.97;35.25;;;7.70;93.10;;;;;;5118344;27;20420;-83
2023/04/09 05:12:55;;;;;;;56.15;31.88;;;7.70;93.10;;;;;;5103857;27;20043;-84
2023/04/09 05:15:21;;;;;;;55.67;32.85;;;7.70;93.10;;;;;;5103844;27;20046;-84
2023/04/09 05:17:47;;;;;;;58.08;34.30;;;7.70;93.10;;;;;;5103153;27;20054;-83
2023/04/09 05:20:12;;;;;;;62.42;34.08;;;7.70;93.10;;;;;;5101637;27;20039;-84
2023/04/09 05:22:38;;;;;;;56.17;31.33;;;7.70;93.10;;;;;;5118245;27;20043;-83
2023/04/09 05:25:04;;;;;;;53.20;32.05;;;7.80;93.10;;;;;;5101243;27;20427;-84
2023/04/09 05:27:30;;;;;;;53.17;29.10;;;7.80;93.10;;;;;;5084554;27;20035;-84
2023/04/09 05:29:56;;;;;;;56.03;32.22;;;7.80;93.00;;;;;;5084143;27;20175;-84
2023/04/09 05:32:21;;;;;;;53.25;30.27;;;7.80;92.90;;;;;;5067534;27;20035;-83
2023/04/09 05:34:47;;;;;;;56.30;31.00;;;7.80;93.00;;;;;;5067396;27;20035;-84
2023/04/09 05:37:13;;;;;;;54.53;30.80;;;7.80;93.00;;;;;;5118359;27;20043;-84
2023/04/09 05:39:39;;;;;;;51.13;29.73;;;7.80;93.10;;;;;;5100877;27;20471;-84
2023/04/09 05:42:05;;;;;;;49.70;29.65;;;7.90;93.20;;;;;;5100921;27;20038;-84
2023/04/09 05:44:30;;;;;;;49.45;29.50;;;7.80;93.20;;;;;;5101115;27;20185;-85
2023/04/09 05:46:56;;;;;;;47.90;29.70;;;7.80;93.10;;;;;;5086072;27;20031;-86
2023/04/09 05:49:22;;;;;;;47.70;30.27;;;7.80;93.10;;;;;;5102395;27;20479;-85
2023/04/09 05:51:49;;;;;;;51.33;30.40;;;7.90;93.20;;;;;;5100584;27;20039;-84
2023/04/09 05:54:15;;;;;;;52.72;30.05;;;7.80;93.30;;;;;;5084170;27;20043;-83
2023/04/09 05:56:42;;;;;;;50.72;30.88;;;7.80;93.30;;;;;;5117680;27;20134;-83
2023/04/09 05:59:08;;;;;;;52.42;30.13;;;7.90;93.20;;;;;;5102012;27;20040;-83
2023/04/09 06:01:33;;;;;;;45.38;28.30;;;7.90;93.20;;;;;;5100477;27;20058;-83
2023/04/09 06:03:59;;;;;;;46.85;28.88;;;7.80;93.20;;;;;;5113506;28;20127;-83
2023/04/09 06:06:25;;;;;;;47.05;28.65;;;7.80;93.30;;;;;;5079899;28;20044;-84
2023/04/09 06:08:51;;;;;;;48.70;27.73;;;7.80;93.20;;;;;;5096549;28;20047;-83
2023/04/09 06:11:17;;;;;;;45.70;28.05;;;7.90;93.30;;;;;;5096542;28;20047;-83
2023/04/09 06:13:43;;;;;;;50.28;29.60;;;7.90;93.30;;;;;;5113528;28;20126;-83
2023/04/09 06:16:09;;;;;;;44.60;28.20;;;7.90;93.20;;;;;;5113435;28;20043;-83
2023/04/09 06:18:36;;;;;;;46.58;27.92;;;7.90;93.20;;;;;;5079347;28;20475;-84
2023/04/09 06:21:08;;;;;;;43.45;28.02;;;7.90;93.10;;;;;;5062985;28;20054;-84
2023/04/09 06:23:35;;;;;;;48.45;28.77;;;7.90;93.00;;;;;;5096882;28;20035;-83
2023/04/09 06:26:01;;;;;;;49.05;29.48;;;7.90;93.00;;;;;;5096957;28;20039;-83
2023/04/09 06:28:31;;;;;;;42.25;26.90;;;8.00;92.90;;;;;;5079796;28;20039;-83
2023/04/09 06:30:57;;;;;;;45.60;27.30;;;7.90;92.70;;;;;;5080443;28;20387;-83
2023/04/09 06:33:23;;;;;;;44.13;26.60;;;8.00;92.70;;;;;;5097171;28;20074;-84
2023/04/09 06:35:49;;;;;;;41.47;25.98;;;8.00;92.30;;;;;;5063181;28;20459;-83
2023/04/09 06:38:15;;;;;;;41.67;26.80;;;8.00;92.10;;;;;;5079727;28;20095;-84
2023/04/09 06:40:41;;;;;;;45.78;27.95;;;8.00;92.10;;;;;;5114268;28;20391;-84
2023/04/09 06:43:08;;;;;;;45.25;27.88;;;8.00;92.20;;;;;;5113055;28;20032;-84
2023/04/09 06:45:34;;;;;;;40.38;27.63;;;8.00;92.10;;;;;;5112545;28;20101;-84
2023/04/09 06:48:00;;;;;;;40.38;25.85;;;8.00;91.70;;;;;;5096298;28;20126;-83
2023/04/09 06:50:26;;;;;;;38.33;24.88;;;8.00;91.80;;;;;;5112939;28;20044;-83
2023/04/09 06:52:53;;;;;;;43.05;26.40;;;8.00;91.70;;;;;;5080270;28;20043;-84
2023/04/09 06:55:18;;;;;;;39.03;27.05;;;8.00;91.50;;;;;;5096976;28;20418;-84
2023/04/09 06:57:44;;;;;;;42.13;28.17;;;8.00;91.00;;;;;;5097414;28;20096;-84
2023/04/09 07:00:11;;;;;;;39.70;26.85;;;8.10;91.20;;;;;;5113578;28;20035;-83
2023/04/09 07:02:37;;;;;;;40.25;26.50;;;8.10;91.00;;;;;;5097008;28;20040;-84
2023/04/09 07:05:03;;;;;;;40.65;25.00;;;8.10;90.90;;;;;;5097892;28;20052;-83
2023/04/09 07:07:29;;;;;;;37.40;26.40;;;8.10;90.10;;;;;;5113927;28;20510;-82
2023/04/09 07:09:55;;;;;;;42.08;26.92;;;8.00;89.20;;;;;;5080027;28;20475;-83
2023/04/09 07:12:32;;;;;;;39.35;27.65;;;8.00;89.20;;;;;;5096692;28;20042;-84
2023/04/09 07:15:02;;;;;;;41.78;26.30;;;8.00;89.60;;;;;;5112887;28;20127;-83
2023/04/09 07:17:30;;;;;;;42.60;26.83;;;8.00;89.60;;;;;;5096604;28;20036;-84
2023/04/09 07:19:55;;;;;;;39.53;26.48;;;8.10;89.70;;;;;;5096924;28;20097;-83
2023/04/09 07:22:22;;;;;;;41.88;27.58;;;8.10;89.90;;;;;;5080726;28;20051;-84
2023/04/09 07:24:54;;;;;;;44.90;27.75;;;8.10;90.00;;;;;;5114522;28;20036;-83
2023/04/09 07:27:24;;;;;;;42.50;26.73;;;8.10;89.90;;;;;;5114242;28;20042;-82
2023/04/09 07:29:49;;;;;;;47.03;28.40;;;8.10;89.80;;;;;;5114232;28;20039;-82
2023/04/09 07:32:16;;;;;;;41.42;28.23;;;8.10;89.60;;;;;;5098008;28;20035;-84
2023/04/09 07:34:45;;;;;;;38.63;26.52;;;8.10;89.70;;;;;;5096481;28;20130;-85
2023/04/09 07:37:11;;;;;;;44.35;28.15;;;8.10;89.90;;;;;;5113984;28;20039;-82
2023/04/09 07:39:37;;;;;;;48.28;29.80;;;8.10;90.10;;;;;;5096580;28;20047;-83
2023/04/09 07:42:03;;;;;;;45.65;29.05;;;8.10;90.00;;;;;;5113472;28;20040;-82
2023/04/09 07:44:35;;;;;;;45.83;29.95;;;8.10;90.10;;;;;;5079557;28;20040;-84
2023/04/09 07:47:03;;;;;;;46.53;29.45;;;8.10;90.00;;;;;;5096532;28;20070;-83
2023/04/09 07:49:28;;;;;;;45.50;28.77;;;8.10;90.00;;;;;;5079392;28;20047;-83
2023/04/09 07:51:54;;;;;;;46.75;29.40;;;8.10;90.10;;;;;;5079571;28;20123;-84
2023/04/09 07:54:20;;;;;;;45.78;29.52;;;8.20;90.20;;;;;;5096363;28;20394;-83
2023/04/09 07:56:46;;;;;;;46.58;31.65;;;8.20;90.10;;;;;;5063593;28;20044;-83
2023/04/09 07:59:14;;;;;;;45.78;28.92;;;8.20;90.20;;;;;;5100103;28;20036;-83
2023/04/09 08:01:40;;;;;;;45.13;30.73;;;8.20;90.40;;;;;;5100513;28;20047;-84
2023/04/09 08:04:06;;;;;;;46.22;33.30;;;8.20;90.50;;;;;;5101310;27;20138;-83
2023/04/09 08:06:32;;;;;;;45.85;31.27;;;8.20;90.60;;;;;;5103384;27;20082;-83
2023/04/09 08:08:57;;;;;;;46.60;31.38;;;8.20;90.60;;;;;;5087184;27;20043;-83
2023/04/09 08:11:24;;;;;;;47.97;30.63;;;8.10;90.60;;;;;;5104282;27;20163;-83
2023/04/09 08:13:51;;;;;;;49.97;30.08;;;8.10;90.80;;;;;;5121451;27;20394;-83
2023/04/09 08:16:17;;;;;;;52.15;32.33;;;8.10;90.80;;;;;;5103586;27;20039;-83
2023/04/09 08:18:43;;;;;;;48.08;30.13;;;8.10;90.90;;;;;;5069268;27;20380;-83
2023/04/09 08:21:09;;;;;;;49.78;32.20;;;8.10;91.00;;;;;;5102582;27;20035;-83
2023/04/09 08:23:35;;;;;;;49.63;32.17;;;8.10;91.10;;;;;;5085574;27;20031;-83
2023/04/09 08:26:00;;;;;;;55.85;33.00;;;8.10;91.20;;;;;;5085598;27;20043;-84
2023/04/09 08:28:26;;;;;;;50.47;30.67;;;8.10;91.30;;;;;;5085046;27;20414;-84
2023/04/09 08:30:52;;;;;;;51.30;32.88;;;8.10;91.10;;;;;;5085141;27;20394;-83
2023/04/09 08:33:18;;;;;;;50.72;33.38;;;8.20;91.00;;;;;;5102525;27;20429;-83
2023/04/09 08:35:44;;;;;;;52.10;33.78;;;8.10;91.10;;;;;;5102321;27;20039;-84
2023/04/09 08:38:10;;;;;;;50.85;32.95;;;8.10;91.00;;;;;;5101952;27;20088;-84
2023/04/09 08:40:36;;;;;;;53.33;31.50;;;8.10;91.10;;;;;;5084960;27;20031;-83
2023/04/09 08:43:05;;;;;;;49.33;30.05;;;8.20;91.20;;;;;;5102092;27;20432;-83
2023/04/09 08:45:31;;;;;;;53.15;31.77;;;8.30;91.20;;;;;;5103018;27;20045;-83
2023/04/09 08:48:01;;;;;;;47.42;29.63;;;8.30;91.10;;;;;;5087420;27;20126;-83
2023/04/09 08:50:27;;;;;;;50.85;30.02;;;8.30;90.80;;;;;;5071313;27;20559;-83
2023/04/09 08:52:55;;;;;;;50.58;31.70;;;8.30;91.00;;;;;;5086826;27;20481;-83
2023/04/09 08:55:21;;;;;;;50.60;31.10;;;8.30;91.00;;;;;;5103393;27;20039;-83
2023/04/09 08:57:47;;;;;;;51.65;31.95;;;8.40;91.00;;;;;;5102991;27;20074;-83
2023/04/09 09:00:12;;;;;;;54.00;32.90;;;8.50;91.00;;;;;;5102611;27;20070;-83
2023/04/09 09:02:58;;;;;;;53.03;32.85;;;8.50;90.80;;;;;;5102873;27;20095;-83
2023/04/09 09:05:38;;;;;;;51.33;31.67;;;8.50;90.90;;;;;;5101483;27;20138;-82
2023/04/09 09:08:05;;;;;;;51.88;32.13;;;8.50;90.80;;;;;;5101385;27;20473;-83
2023/04/09 09:10:38;;;;;;;45.65;28.30;;;8.60;90.80;;;;;;5100925;27;20039;-82
2023/04/09 09:13:23;;;;;;;51.75;32.38;;;8.60;90.80;;;;;;5118393;27;20092;-84
2023/04/09 09:15:55;;;;;;;49.67;31.45;;;8.60;90.60;;;;;;5118363;27;20046;-83
2023/04/09 09:18:41;;;;;;;51.70;31.95;;;8.70;90.30;;;;;;5101571;27;20039;-83
2023/04/09 09:21:13;;;;;;;47.40;29.27;;;8.60;89.70;;;;;;5118606;27;20092;-83
2023/04/09 09:23:39;;;;;;;47.97;29.77;;;8.60;89.50;;;;;;5101766;27;20562;-83
2023/04/09 09:26:19;;;;;;;47.67;28.98;;;8.60;89.70;;;;;;5101879;27;20075;-84
2023/04/09 09:28:50;;;;;;;46.65;29.60;;;8.70;90.00;;;;;;5118241;27;20039;-83
2023/04/09 09:31:19;;;;;;;48.45;30.80;;;8.70;89.70;;;;;;5101096;27;20126;-84
2023/04/09 09:33:47;;;;;;;50.25;33.03;;;8.70;89.90;;;;;;5083865;27;20130;-83
2023/04/09 09:36:14;;;;;;;52.17;31.40;;;8.80;89.80;;;;;;5118043;27;20053;-84
2023/04/09 09:38:55;;;;;;;48.17;30.85;;;8.80;89.30;;;;;;5100751;27;20070;-85
2023/04/09 09:41:23;;;;;;;47.90;30.92;;;8.80;89.60;;;;;;5100899;27;20126;-83
2023/04/09 09:43:49;;;;;;;44.65;29.58;;;8.80;89.50;;;;;;5117711;27;20123;-83
2023/04/09 09:46:16;;;;;;;45.33;30.83;;;8.80;89.40;;;;;;5119141;27;20125;-84
2023/04/09 09:48:45;;;;;;;43.78;30.33;;;8.80;88.90;;;;;;5103477;27;20047;-84
2023/04/09 09:51:12;;;;;;;40.53;28.33;;;8.80;88.80;;;;;;5085669;27;20035;-84
2023/04/09 09:53:44;;;;;;;44.97;30.10;;;8.80;88.60;;;;;;5103716;27;20035;-84
2023/04/09 09:56:17;;;;;;;45.22;29.45;;;8.80;88.30;;;;;;5122347;27;20478;-83
2023/04/09 09:59:02;;;;;;;44.60;28.45;;;8.80;88.70;;;;;;5100322;27;20039;-84
2023/04/09 10:01:29;;;;;;;45.50;28.45;;;8.90;88.70;;;;;;5100747;27;20031;-85
2023/04/09 10:03:58;;;;;;;42.30;27.27;;;9.00;88.80;;;;;;5117335;27;20042;-84
2023/04/09 10:06:25;;;;;;;45.67;28.75;;;9.00;88.80;;;;;;5116844;27;20062;-84
2023/04/09 10:08:52;;;;;;;42.53;27.70;;;9.10;88.70;;;;;;5117746;27;20043;-85
2023/04/09 10:11:19;;;;;;;42.22;28.08;;;9.10;88.10;;;;;;5084045;27;20035;-85
2023/04/09 10:13:51;;;;;;;38.60;25.23;;;9.30;88.40;;;;;;5100874;27;20043;-85
2023/04/09 10:16:19;;;;;;;38.40;26.83;;;9.30;88.20;;;;;;5117552;27;20499;-83
2023/04/09 10:18:45;;;;;;;41.13;27.33;;;9.40;87.90;;;;;;5119108;27;20043;-84
2023/04/09 10:21:32;;;;;;;38.10;24.92;;;9.40;87.70;;;;;;5101384;27;20387;-84
2023/04/09 10:23:59;;;;;;;45.42;28.25;;;9.50;87.60;;;;;;5118751;27;20035;-84
2023/04/09 10:26:29;;;;;;;39.80;27.13;;;9.50;87.40;;;;;;5102038;27;20038;-85
2023/04/09 10:29:10;;;;;;;39.72;26.73;;;9.50;86.90;;;;;;5118649;27;20155;-84
2023/04/09 10:32:07;;;;;;;39.00;27.30;;;9.50;86.40;;;;;;5101074;27;20039;-84
2023/04/09 10:34:41;;;;;;;39.65;27.15;;;9.40;86.10;;;;;;5100313;27;20043;-83
2023/04/09 10:37:08;;;;;;;;;;;9.50;86.50;;;;;;5117280;27;20039;-84
2023/04/09 10:39:40;;;;;;;42.13;27.15;;;9.60;86.80;;;;;;5099384;27;19926;-85
2023/04/09 10:42:26;;;;;;;36.72;26.00;;;9.50;85.70;;;;;;5116588;27;20039;-85
2023/04/09 10:45:08;;;;;;;40.22;26.80;;;9.60;85.90;;;;;;5099349;27;20137;-85
2023/04/09 10:47:36;;;;;;;37.80;26.40;;;9.60;85.00;;;;;;5099601;27;20038;-84
2023/04/09 10:50:19;;;;;;;39.67;25.50;;;9.70;86.10;;;;;;5117083;27;20039;-84
2023/04/09 10:52:46;;;;;;;36.17;26.02;;;9.70;84.80;;;;;;5100472;27;20056;-85
2023/04/09 10:55:30;;;;;;;36.15;25.45;;;9.70;85.00;;;;;;5083924;27;20039;-85
2023/04/09 10:57:57;;;;;;;36.67;24.55;;;9.80;84.00;;;;;;5117700;27;20247;-84
2023/04/09 11:00:23;;;;;;;35.70;25.27;;;9.90;84.50;;;;;;5101915;27;20050;-83
2023/04/09 11:03:05;;;;;;;39.30;26.98;;;9.90;83.20;;;;;;5085302;27;20031;-83
2023/04/09 11:05:38;;;;;;;34.92;24.40;;;10.10;83.80;;;;;;5101502;27;20051;-83
2023/04/09 11:08:12;;;;;;;36.43;26.33;;;10.10;82.60;;;;;;5119533;27;20614;-83
2023/04/09 11:10:39;;;;;;;42.90;27.80;;;10.20;83.40;;;;;;5085987;27;20098;-84
2023/04/09 11:13:09;;;;;;;39.47;26.27;;;10.30;83.60;;;;;;5086272;27;20092;-84
2023/04/09 11:15:36;;;;;;;38.75;27.10;;;10.20;81.30;;;;;;5119556;27;20042;-84
2023/04/09 11:18:02;;;;;;;39.70;28.45;;;10.20;82.10;;;;;;5103045;27;20053;-84
2023/04/09 11:20:30;;;;;;;36.88;25.90;;;10.30;81.70;;;;;;5119537;27;20097;-84
2023/04/09 11:22:56;;;;;;;38.15;27.33;;;10.30;82.20;;;;;;5102433;27;20095;-84
2023/04/09 11:25:25;;;;;;;36.15;26.65;;;10.40;82.00;;;;;;5118183;27;20039;-83
2023/04/09 11:27:51;;;;;;;35.95;25.88;;;10.50;81.90;;;;;;5100433;27;20055;-84
2023/04/09 11:30:18;;;;;;;34.30;24.90;;;10.60;81.40;;;;;;5100412;27;20476;-84
2023/04/09 11:32:44;;;;;;;33.72;24.17;;;10.90;81.80;;;;;;5116301;27;20053;-83
2023/04/09 11:35:14;;;;;;;34.05;25.70;;;11.10;81.50;;;;;;5082784;27;20035;-84
2023/04/09 11:37:42;;;;;;;35.35;25.17;;;11.40;81.80;;;;;;5082753;27;20521;-85
2023/04/09 11:40:21;;;;;;;32.67;23.88;;;11.50;80.00;;;;;;5116342;27;20094;-84
2023/04/09 11:42:52;;;;;;;34.33;24.58;;;11.80;79.60;;;;;;5100950;28;20096;-84
2023/04/09 11:45:20;;;;;;;30.67;23.20;;;11.80;78.10;;;;;;5101107;28;20042;-83
2023/04/09 11:47:46;;;;;;;34.20;25.20;;;11.90;78.00;;;;;;5101472;28;20484;-84
2023/04/09 11:50:13;;;;;;;32.30;24.60;;;11.80;76.60;;;;;;5101063;28;20053;-84
2023/04/09 11:52:40;;;;;;;33.15;23.77;;;11.80;78.10;;;;;;5118612;28;20039;-84
2023/04/09 11:55:07;;;;;;;31.58;23.95;;;12.00;77.90;;;;;;5100954;28;20129;-85
2023/04/09 11:57:42;;;;;;;34.15;25.20;;;12.20;77.20;;;;;;5101283;28;20051;-84
2023/04/09 12:00:18;;;;;;;31.77;23.40;;;12.20;76.70;;;;;;5117391;28;20039;-84
2023/04/09 12:02:45;;;;;;;36.03;25.13;;;12.20;76.40;;;;;;5117169;28;20382;-84
2023/04/09 12:05:19;;;;;;;33.88;22.92;;;12.50;78.10;;;;;;5099640;28;20062;-85
2023/04/09 12:07:45;;;;;;;32.72;23.90;;;12.90;76.60;;;;;;5117051;28;20039;-85
2023/04/09 12:10:11;;;;;;;32.00;24.00;;;13.10;76.70;;;;;;5099204;28;20051;-85
2023/04/09 12:12:45;;;;;;;32.28;23.58;;;13.30;73.00;;;;;;5116823;28;20043;-85
2023/04/09 12:15:20;;;;;;;28.88;22.27;;;13.30;73.80;;;;;;5099699;28;20038;-85
2023/04/09 12:17:48;;;;;;;32.30;23.05;;;13.60;73.70;;;;;;5099749;28;20035;-83
2023/04/09 12:20:25;;;;;;;29.10;22.35;;;14.00;74.30;;;;;;5099496;28;20502;-85
2023/04/09 12:22:50;;;;;;;31.02;22.52;;;14.30;72.90;;;;;;5116146;28;20035;-85
2023/04/09 12:25:16;;;;;;;26.42;21.92;;;14.50;73.20;;;;;;5098575;28;20509;-83
2023/04/09 12:27:42;;;;;;;29.10;21.50;;;14.20;70.30;;;;;;5116402;28;20111;-85
2023/04/09 12:30:09;;;;;;;26.60;21.63;;;14.40;71.90;;;;;;5098853;28;20035;-83
2023/04/09 12:32:35;;;;;;;27.60;21.83;;;14.80;72.60;;;;;;5098745;28;20098;-84
2023/04/09 12:35:01;;;;;;;28.33;20.98;;;15.00;72.40;;;;;;5098188;28;20039;-86
2023/04/09 12:37:27;;;;;;;27.90;20.30;;;15.10;73.00;;;;;;5064595;28;20046;-83
2023/04/09 12:39:53;;;;;;;27.08;20.10;;;15.40;71.60;;;;;;5098116;28;20047;-85
2023/04/09 12:42:19;;;;;;;24.70;21.13;;;15.50;68.90;;;;;;5081767;28;20035;-85